Martine P — 2FIL4 — position and weather

sailwx.info

Track history (hours):
 
Tides and Currents Weather Stations Pressure Air Temp Water Temp Dewpoint Dewpoint Depression Visibility Wind Speed Wind Dir Waves Ship Positions

Martine P

Last reported at 2014-Nov-23 05:33 UTC. Time now 2014-Nov-24 20:17 UTC.
Position N 35°58' W 005°18'.

Length 27 m; draft 2.8 m.

Type: Tug. MMSI: 235091541.

Date/timePositionNaut miles runAvg speedWind from/ knotsBaromVisibWave heightAir tempDewpointWater temp
2014-Nov-23 05:33N 35°58' W 005°18'9 9.0
2014-Nov-23 04:33N 35°57' W 005°29'207 7.6
2014-Nov-22 01:25N 37°00' W 009°35'  
2014-Nov-14 09:32N 50°46' E 000°04'9 9.1
2014-Nov-14 08:33N 50°37' E 000°04'6 5.4
2014-Nov-14 07:24N 50°35' E 000°13'7 8.0
2014-Nov-14 06:33N 50°37' E 000°23'8 8.0
2014-Nov-14 05:34N 50°39' E 000°35'8 7.7
2014-Nov-14 04:34N 50°44' E 000°45'7 7.2
2014-Nov-14 03:34N 50°48' E 000°54'16 7.1
2014-Nov-14 01:20N 50°57' E 001°14'6 8.2
2014-Nov-14 00:34N 51°02' E 001°21'9 9.3
2014-Nov-13 23:34N 51°07' E 001°33'9 9.4
2014-Nov-13 22:34N 51°14' E 001°44'8 8.4
2014-Nov-13 21:34N 51°21' E 001°49'7 7.5
2014-Nov-13 20:34N 51°28' E 001°55'7 6.9
2014-Nov-13 19:34N 51°33' E 002°02'6 6.3
2014-Nov-13 18:33N 51°38' E 002°09'66 7.3
2014-Nov-13 09:31N 52°03' E 003°48'8 8.0
2014-Nov-13 08:33N 52°01' E 003°60'10 9.6
2014-Nov-13 07:33N 51°56' E 004°13'1 1.3
2014-Nov-13 06:34N 51°55' E 004°15'0 0.0
2014-Nov-13 05:34N 51°55' E 004°15'  
Track history (hours):
 
Tides and Currents Weather Stations Pressure Air Temp Water Temp Dewpoint Dewpoint Depression Visibility Wind Speed Wind Dir Waves Ship Positions

Martine P

Last reported at 2014-Nov-23 05:33 UTC. Time now 2014-Nov-24 20:17 UTC.
Position N 35°58' W 005°18'.

Length 27 m; draft 2.8 m.

Type: Tug. MMSI: 235091541.

Date/timePositionNaut miles runAvg speedWind from/ knotsBaromVisibWave heightAir tempDewpointWater temp
2014-Nov-23 05:33N 35°58' W 005°18'9 9.0
2014-Nov-23 04:33N 35°57' W 005°29'207 7.6
2014-Nov-22 01:25N 37°00' W 009°35'  
2014-Nov-14 09:32N 50°46' E 000°04'9 9.1
2014-Nov-14 08:33N 50°37' E 000°04'6 5.4
2014-Nov-14 07:24N 50°35' E 000°13'7 8.0
2014-Nov-14 06:33N 50°37' E 000°23'8 8.0
2014-Nov-14 05:34N 50°39' E 000°35'8 7.7
2014-Nov-14 04:34N 50°44' E 000°45'7 7.2
2014-Nov-14 03:34N 50°48' E 000°54'16 7.1
2014-Nov-14 01:20N 50°57' E 001°14'6 8.2
2014-Nov-14 00:34N 51°02' E 001°21'9 9.3
2014-Nov-13 23:34N 51°07' E 001°33'9 9.4
2014-Nov-13 22:34N 51°14' E 001°44'8 8.4
2014-Nov-13 21:34N 51°21' E 001°49'7 7.5
2014-Nov-13 20:34N 51°28' E 001°55'7 6.9
2014-Nov-13 19:34N 51°33' E 002°02'6 6.3
2014-Nov-13 18:33N 51°38' E 002°09'66 7.3
2014-Nov-13 09:31N 52°03' E 003°48'8 8.0
2014-Nov-13 08:33N 52°01' E 003°60'10 9.6
2014-Nov-13 07:33N 51°56' E 004°13'1 1.3
2014-Nov-13 06:34N 51°55' E 004°15'0 0.0
2014-Nov-13 05:34N 51°55' E 004°15'  

Dump ship's entire track history